KAOH/AOH METAR and TAF weather

Enter ICAO airport designator
Station Type Date Time Source
KAOH METAR 2022/05/26 03:53 UTC NOAA

KAOH 260353Z AUTO 20003KT 10SM FEW039 SCT060 BKN075 20/18 A2995 RMK AO2 RAE10B37E53 TSE04 SLP136 P0001 T02000183


Station Type Date Time Source
KAOH Decoded METAR 2022/05/26 03:53 UTC NOAA

LIMA ALLEN COUNTY AIRPORT, OH, United States (KAOH) 40-42N 84-01W 296M
May 25, 2022 - 11:53 PM EDT / 2022.05.26 0353 UTC
Wind: from the SSW (200 degrees) at 3 MPH (3 KT):0
Visibility: 10 mile(s):0
Sky conditions: mostly cloudy
Precipitation last hour: 0.01 inches
Temperature: 68.0 F (20.0 C)
Dew Point: 64.9 F (18.3 C)
Relative Humidity: 89%
Pressure (altimeter): 29.95 in. Hg (1014 hPa)
ob: KAOH 260353Z AUTO 20003KT 10SM FEW039 SCT060 BKN075 20/18 A2995 RMK AO2 RAE10B37E53 TSE04 SLP136 P0001 T02000183
cycle: 4

Station Type Date Time Source
KAOH TAF UTC NOAA

Error!

Example: see airport list